sensor_id;sensor_type;location;lat;lon;timestamp;pressure;altitude;pressure_sealevel;temperature;humidity
73501;BME280;61721;42.206;25.320;2023-02-01T00:02:02;99770.19;;;3.62;70.65
73501;BME280;61721;42.206;25.320;2023-02-01T00:04:29;99771.47;;;3.28;70.40
73501;BME280;61721;42.206;25.320;2023-02-01T00:06:57;99766.50;;;3.65;69.17
73501;BME280;61721;42.206;25.320;2023-02-01T00:09:24;99763.97;;;3.49;70.73
73501;BME280;61721;42.206;25.320;2023-02-01T00:11:53;99770.78;;;3.94;68.94
73501;BME280;61721;42.206;25.320;2023-02-01T00:14:20;99776.84;;;3.27;70.54
73501;BME280;61721;42.206;25.320;2023-02-01T00:16:48;99767.28;;;3.10;71.58
73501;BME280;61721;42.206;25.320;2023-02-01T00:19:15;99775.41;;;2.93;73.29
73501;BME280;61721;42.206;25.320;2023-02-01T00:21:42;99768.81;;;3.28;71.66
73501;BME280;61721;42.206;25.320;2023-02-01T00:24:11;99763.53;;;3.28;71.07
73501;BME280;61721;42.206;25.320;2023-02-01T00:26:40;99769.53;;;3.59;69.24
73501;BME280;61721;42.206;25.320;2023-02-01T00:29:12;99765.97;;;3.31;70.04
73501;BME280;61721;42.206;25.320;2023-02-01T00:31:39;99774.47;;;3.65;69.28
73501;BME280;61721;42.206;25.320;2023-02-01T00:34:07;99775.41;;;3.21;71.27
73501;BME280;61721;42.206;25.320;2023-02-01T00:36:35;99776.34;;;3.63;70.12
73501;BME280;61721;42.206;25.320;2023-02-01T00:39:02;99780.44;;;3.81;68.46
73501;BME280;61721;42.206;25.320;2023-02-01T00:41:29;99777.25;;;3.76;69.03
73501;BME280;61721;42.206;25.320;2023-02-01T00:43:57;99780.28;;;3.84;68.57
73501;BME280;61721;42.206;25.320;2023-02-01T00:46:25;99782.59;;;3.33;69.42
73501;BME280;61721;42.206;25.320;2023-02-01T00:48:53;99781.84;;;3.31;69.01
73501;BME280;61721;42.206;25.320;2023-02-01T00:51:22;99785.25;;;3.19;69.75
73501;BME280;61721;42.206;25.320;2023-02-01T00:53:49;99787.91;;;3.19;69.79
73501;BME280;61721;42.206;25.320;2023-02-01T00:56:16;99777.84;;;3.10;70.06
73501;BME280;61721;42.206;25.320;2023-02-01T00:58:45;99778.91;;;3.08;70.40
73501;BME280;61721;42.206;25.320;2023-02-01T01:01:14;99775.91;;;3.28;70.26
73501;BME280;61721;42.206;25.320;2023-02-01T01:03:45;99778.69;;;2.82;71.37
73501;BME280;61721;42.206;25.320;2023-02-01T01:06:14;99791.47;;;3.32;70.00
73501;BME280;61721;42.206;25.320;2023-02-01T01:08:42;99784.09;;;3.37;69.73
73501;BME280;61721;42.206;25.320;2023-02-01T01:11:13;99780.50;;;3.10;70.21
73501;BME280;61721;42.206;25.320;2023-02-01T01:13:41;99774.63;;;3.05;69.82
73501;BME280;61721;42.206;25.320;2023-02-01T01:16:10;99784.59;;;3.30;69.71
73501;BME280;61721;42.206;25.320;2023-02-01T01:18:38;99786.56;;;3.26;69.04
73501;BME280;61721;42.206;25.320;2023-02-01T01:21:08;99774.28;;;3.11;69.01
73501;BME280;61721;42.206;25.320;2023-02-01T01:23:37;99772.59;;;3.38;68.67
73501;BME280;61721;42.206;25.320;2023-02-01T01:26:07;99786.56;;;3.55;67.73
73501;BME280;61721;42.206;25.320;2023-02-01T01:28:35;99784.09;;;3.37;68.56
73501;BME280;61721;42.206;25.320;2023-02-01T01:31:02;99787.47;;;2.97;69.00
73501;BME280;61721;42.206;25.320;2023-02-01T01:33:30;99785.13;;;2.92;69.69
73501;BME280;61721;42.206;25.320;2023-02-01T01:35:57;99798.38;;;2.63;70.89
73501;BME280;61721;42.206;25.320;2023-02-01T01:38:26;99786.41;;;2.85;70.18
73501;BME280;61721;42.206;25.320;2023-02-01T01:40:53;99793.31;;;2.74;69.89
73501;BME280;61721;42.206;25.320;2023-02-01T01:43:20;99793.53;;;2.99;69.23
73501;BME280;61721;42.206;25.320;2023-02-01T01:45:48;99790.13;;;2.97;69.06
73501;BME280;61721;42.206;25.320;2023-02-01T01:48:18;99793.25;;;3.04;68.41
73501;BME280;61721;42.206;25.320;2023-02-01T01:50:49;99802.44;;;3.26;68.10
73501;BME280;61721;42.206;25.320;2023-02-01T01:53:23;99800.22;;;3.61;67.20
73501;BME280;61721;42.206;25.320;2023-02-01T01:55:53;99795.13;;;2.87;69.23
73501;BME280;61721;42.206;25.320;2023-02-01T01:58:25;99781.25;;;3.40;67.87
73501;BME280;61721;42.206;25.320;2023-02-01T02:00:53;99783.44;;;3.48;66.34
73501;BME280;61721;42.206;25.320;2023-02-01T02:03:23;99781.84;;;3.31;67.36
73501;BME280;61721;42.206;25.320;2023-02-01T02:05:54;99785.91;;;3.37;67.17
73501;BME280;61721;42.206;25.320;2023-02-01T02:08:23;99775.59;;;3.47;66.78
73501;BME280;61721;42.206;25.320;2023-02-01T02:10:53;99778.13;;;2.91;68.46
73501;BME280;61721;42.206;25.320;2023-02-01T02:13:27;99779.19;;;3.17;68.18
73501;BME280;61721;42.206;25.320;2023-02-01T02:16:05;99787.28;;;2.26;70.95
73501;BME280;61721;42.206;25.320;2023-02-01T02:18:44;99785.25;;;2.61;69.86
73501;BME280;61721;42.206;25.320;2023-02-01T02:21:30;99790.56;;;2.45;71.50
73501;BME280;61721;42.206;25.320;2023-02-01T02:27:19;99788.56;;;2.19;70.20
73501;BME280;61721;42.206;25.320;2023-02-01T02:30:16;99784.50;;;1.51;73.81
73501;BME280;61721;42.206;25.320;2023-02-01T02:33:20;99804.25;;;1.91;73.46
73501;BME280;61721;42.206;25.320;2023-02-01T02:35:54;99793.19;;;2.15;72.43
73501;BME280;61721;42.206;25.320;2023-02-01T02:38:32;99786.91;;;1.87;72.59
73501;BME280;61721;42.206;25.320;2023-02-01T02:41:07;99787.59;;;1.75;73.29
73501;BME280;61721;42.206;25.320;2023-02-01T02:43:39;99793.03;;;2.03;72.22
73501;BME280;61721;42.206;25.320;2023-02-01T02:46:33;99800.59;;;2.54;70.56
73501;BME280;61721;42.206;25.320;2023-02-01T02:49:27;99789.03;;;2.41;72.10
73501;BME280;61721;42.206;25.320;2023-02-01T02:52:00;99778.31;;;2.88;70.13
73501;BME280;61721;42.206;25.320;2023-02-01T02:54:47;99787.50;;;2.53;71.80
73501;BME280;61721;42.206;25.320;2023-02-01T02:57:20;99774.47;;;3.22;69.45
73501;BME280;61721;42.206;25.320;2023-02-01T03:00:09;99772.75;;;3.21;69.63
73501;BME280;61721;42.206;25.320;2023-02-01T03:02:55;99767.97;;;3.28;69.30
73501;BME280;61721;42.206;25.320;2023-02-01T03:05:45;99769.66;;;3.15;69.18
73501;BME280;61721;42.206;25.320;2023-02-01T03:08:13;99788.19;;;2.71;71.08
73501;BME280;61721;42.206;25.320;2023-02-01T03:10:47;99789.63;;;2.46;72.21
73501;BME280;61721;42.206;25.320;2023-02-01T03:13:22;99778.03;;;2.49;71.83
73501;BME280;61721;42.206;25.320;2023-02-01T03:15:54;99771.75;;;2.66;71.40
73501;BME280;61721;42.206;25.320;2023-02-01T03:18:28;99774.06;;;2.86;70.20
73501;BME280;61721;42.206;25.320;2023-02-01T03:21:00;99769.31;;;2.63;70.56
73501;BME280;61721;42.206;25.320;2023-02-01T03:23:33;99760.19;;;2.96;70.24
73501;BME280;61721;42.206;25.320;2023-02-01T03:26:02;99763.47;;;2.72;70.59
73501;BME280;61721;42.206;25.320;2023-02-01T03:28:33;99778.88;;;2.49;70.59
73501;BME280;61721;42.206;25.320;2023-02-01T03:31:01;99777.41;;;2.59;70.68
73501;BME280;61721;42.206;25.320;2023-02-01T03:33:30;99783.72;;;2.27;71.84
73501;BME280;61721;42.206;25.320;2023-02-01T03:36:08;99786.38;;;1.96;71.90
73501;BME280;61721;42.206;25.320;2023-02-01T03:38:40;99790.13;;;2.07;72.53
73501;BME280;61721;42.206;25.320;2023-02-01T03:41:13;99800.69;;;2.23;72.20
73501;BME280;61721;42.206;25.320;2023-02-01T03:43:50;99793.44;;;2.11;72.58
73501;BME280;61721;42.206;25.320;2023-02-01T03:46:22;99791.59;;;2.43;70.98
73501;BME280;61721;42.206;25.320;2023-02-01T03:48:59;99792.50;;;2.28;71.39
73501;BME280;61721;42.206;25.320;2023-02-01T03:51:29;99792.84;;;1.90;72.52
73501;BME280;61721;42.206;25.320;2023-02-01T03:53:59;99791.84;;;1.93;72.21
73501;BME280;61721;42.206;25.320;2023-02-01T03:56:28;99795.28;;;2.25;71.79
73501;BME280;61721;42.206;25.320;2023-02-01T03:58:56;99801.53;;;2.08;71.59
73501;BME280;61721;42.206;25.320;2023-02-01T04:01:28;99787.72;;;2.19;71.73
73501;BME280;61721;42.206;25.320;2023-02-01T04:03:56;99794.38;;;1.94;72.09
73501;BME280;61721;42.206;25.320;2023-02-01T04:06:24;99804.25;;;1.91;72.77
73501;BME280;61721;42.206;25.320;2023-02-01T04:08:53;99795.22;;;2.26;71.51
73501;BME280;61721;42.206;25.320;2023-02-01T04:11:20;99799.81;;;2.23;71.25
73501;BME280;61721;42.206;25.320;2023-02-01T04:13:47;99796.00;;;2.12;71.95
73501;BME280;61721;42.206;25.320;2023-02-01T04:16:14;99792.84;;;2.22;71.62
73501;BME280;61721;42.206;25.320;2023-02-01T04:18:42;99792.66;;;2.09;71.42
73501;BME280;61721;42.206;25.320;2023-02-01T04:21:09;99801.75;;;2.19;71.59
73501;BME280;61721;42.206;25.320;2023-02-01T04:23:36;99804.94;;;1.94;72.10
73501;BME280;61721;42.206;25.320;2023-02-01T04:26:05;99806.91;;;1.91;72.11
73501;BME280;61721;42.206;25.320;2023-02-01T04:28:32;99807.81;;;2.21;71.29
73501;BME280;61721;42.206;25.320;2023-02-01T04:30:59;99820.53;;;2.44;70.75
73501;BME280;61721;42.206;25.320;2023-02-01T04:33:26;99821.28;;;1.85;71.85
73501;BME280;61721;42.206;25.320;2023-02-01T04:35:55;99822.53;;;1.78;72.90
73501;BME280;61721;42.206;25.320;2023-02-01T04:38:22;99823.84;;;1.71;72.79
73501;BME280;61721;42.206;25.320;2023-02-01T04:40:49;99824.41;;;1.60;72.79
73501;BME280;61721;42.206;25.320;2023-02-01T04:43:17;99828.94;;;2.21;70.99
73501;BME280;61721;42.206;25.320;2023-02-01T04:45:48;99819.75;;;1.65;71.45
73501;BME280;61721;42.206;25.320;2023-02-01T04:48:16;99828.75;;;1.61;72.77
73501;BME280;61721;42.206;25.320;2023-02-01T04:50:43;99836.00;;;1.73;72.09
73501;BME280;61721;42.206;25.320;2023-02-01T04:53:13;99840.94;;;2.11;71.23
73501;BME280;61721;42.206;25.320;2023-02-01T04:55:41;99842.22;;;2.20;71.00
73501;BME280;61721;42.206;25.320;2023-02-01T04:58:09;99850.56;;;1.81;71.39
73501;BME280;61721;42.206;25.320;2023-02-01T05:00:38;99853.63;;;2.04;71.51
73501;BME280;61721;42.206;25.320;2023-02-01T05:03:05;99853.19;;;1.81;71.24
73501;BME280;61721;42.206;25.320;2023-02-01T05:05:32;99853.56;;;2.06;70.66
73501;BME280;61721;42.206;25.320;2023-02-01T05:07:59;99853.81;;;1.86;71.97
73501;BME280;61721;42.206;25.320;2023-02-01T05:10:26;99858.41;;;1.98;71.37
73501;BME280;61721;42.206;25.320;2023-02-01T05:12:54;99868.94;;;1.66;71.61
73501;BME280;61721;42.206;25.320;2023-02-01T05:15:39;99862.94;;;1.47;72.38
73501;BME280;61721;42.206;25.320;2023-02-01T05:18:06;99860.75;;;1.38;72.50
73501;BME280;61721;42.206;25.320;2023-02-01T05:20:34;99866.91;;;1.71;71.55
73501;BME280;61721;42.206;25.320;2023-02-01T05:23:01;99862.97;;;1.79;70.58
73501;BME280;61721;42.206;25.320;2023-02-01T05:25:28;99869.25;;;1.60;71.13
73501;BME280;61721;42.206;25.320;2023-02-01T05:27:55;99863.94;;;1.78;71.03
73501;BME280;61721;42.206;25.320;2023-02-01T05:30:22;99863.19;;;2.23;69.08
73501;BME280;61721;42.206;25.320;2023-02-01T05:32:51;99864.88;;;2.24;69.41
73501;BME280;61721;42.206;25.320;2023-02-01T05:35:19;99866.09;;;2.18;69.20
73501;BME280;61721;42.206;25.320;2023-02-01T05:37:46;99866.75;;;2.06;69.84
73501;BME280;61721;42.206;25.320;2023-02-01T05:40:14;99867.78;;;1.88;70.03
73501;BME280;61721;42.206;25.320;2023-02-01T05:42:41;99862.84;;;1.97;69.47
73501;BME280;61721;42.206;25.320;2023-02-01T05:45:09;99877.38;;;2.04;68.86
73501;BME280;61721;42.206;25.320;2023-02-01T05:47:37;99874.13;;;1.84;69.41
73501;BME280;61721;42.206;25.320;2023-02-01T05:50:07;99874.69;;;2.06;69.13
73501;BME280;61721;42.206;25.320;2023-02-01T05:52:34;99866.25;;;2.15;68.35
73501;BME280;61721;42.206;25.320;2023-02-01T05:55:01;99868.81;;;2.32;68.48
73501;BME280;61721;42.206;25.320;2023-02-01T05:57:28;99866.72;;;1.75;70.50
73501;BME280;61721;42.206;25.320;2023-02-01T05:59:55;99869.19;;;1.93;69.78
73501;BME280;61721;42.206;25.320;2023-02-01T06:02:22;99871.25;;;2.04;69.90
73501;BME280;61721;42.206;25.320;2023-02-01T06:04:50;99879.34;;;2.64;68.03
73501;BME280;61721;42.206;25.320;2023-02-01T06:07:18;99878.50;;;2.47;68.05
73501;BME280;61721;42.206;25.320;2023-02-01T06:09:46;99884.41;;;2.67;67.15
73501;BME280;61721;42.206;25.320;2023-02-01T06:12:13;99895.50;;;2.73;67.69
73501;BME280;61721;42.206;25.320;2023-02-01T06:14:40;99891.31;;;3.15;66.19
73501;BME280;61721;42.206;25.320;2023-02-01T06:17:08;99898.16;;;3.03;66.95
73501;BME280;61721;42.206;25.320;2023-02-01T06:19:37;99901.22;;;2.66;67.20
73501;BME280;61721;42.206;25.320;2023-02-01T06:22:06;99897.28;;;3.03;66.21
73501;BME280;61721;42.206;25.320;2023-02-01T06:24:34;99905.81;;;3.08;65.59
73501;BME280;61721;42.206;25.320;2023-02-01T06:27:01;99905.06;;;3.50;64.66
73501;BME280;61721;42.206;25.320;2023-02-01T06:29:28;99896.34;;;3.62;64.88
73501;BME280;61721;42.206;25.320;2023-02-01T06:31:56;99895.44;;;3.91;63.37
73501;BME280;61721;42.206;25.320;2023-02-01T06:34:23;99888.69;;;3.71;63.62
73501;BME280;61721;42.206;25.320;2023-02-01T06:36:50;99884.22;;;4.14;63.71
73501;BME280;61721;42.206;25.320;2023-02-01T06:39:18;99889.78;;;4.24;63.30
73501;BME280;61721;42.206;25.320;2023-02-01T06:41:47;99892.97;;;4.70;61.95
73501;BME280;61721;42.206;25.320;2023-02-01T06:44:15;99900.84;;;4.71;62.57
73501;BME280;61721;42.206;25.320;2023-02-01T06:46:42;99900.84;;;4.30;63.13
73501;BME280;61721;42.206;25.320;2023-02-01T06:49:09;99910.25;;;4.49;63.10
73501;BME280;61721;42.206;25.320;2023-02-01T06:51:37;99902.97;;;4.79;61.57
73501;BME280;61721;42.206;25.320;2023-02-01T06:54:04;99908.66;;;4.73;61.84
73501;BME280;61721;42.206;25.320;2023-02-01T06:56:31;99909.50;;;4.73;61.56
73501;BME280;61721;42.206;25.320;2023-02-01T06:59:03;99918.22;;;5.67;59.48
73501;BME280;61721;42.206;25.320;2023-02-01T07:01:30;99911.41;;;6.14;58.60
73501;BME280;61721;42.206;25.320;2023-02-01T07:03:58;99909.31;;;5.93;59.27
73501;BME280;61721;42.206;25.320;2023-02-01T07:06:25;99905.44;;;6.23;58.25
73501;BME280;61721;42.206;25.320;2023-02-01T07:08:52;99907.75;;;6.15;59.04
73501;BME280;61721;42.206;25.320;2023-02-01T07:11:21;99909.19;;;6.08;58.25
73501;BME280;61721;42.206;25.320;2023-02-01T07:13:49;99908.84;;;6.12;57.76
73501;BME280;61721;42.206;25.320;2023-02-01T07:16:19;99916.44;;;6.42;57.58
73501;BME280;61721;42.206;25.320;2023-02-01T07:18:46;99915.19;;;6.95;55.58
73501;BME280;61721;42.206;25.320;2023-02-01T07:21:14;99920.31;;;7.44;54.25
73501;BME280;61721;42.206;25.320;2023-02-01T07:23:41;99923.66;;;7.00;54.93
73501;BME280;61721;42.206;25.320;2023-02-01T07:26:10;99915.53;;;7.71;53.25
73501;BME280;61721;42.206;25.320;2023-02-01T07:28:39;99920.16;;;7.35;53.48
73501;BME280;61721;42.206;25.320;2023-02-01T07:31:07;99921.88;;;7.12;53.91
73501;BME280;61721;42.206;25.320;2023-02-01T07:33:36;99925.63;;;7.44;53.29
73501;BME280;61721;42.206;25.320;2023-02-01T07:36:05;99929.22;;;7.32;54.21
73501;BME280;61721;42.206;25.320;2023-02-01T07:38:33;99921.84;;;7.82;53.11
73501;BME280;61721;42.206;25.320;2023-02-01T07:41:04;99931.72;;;7.68;53.52
73501;BME280;61721;42.206;25.320;2023-02-01T07:43:32;99946.81;;;8.25;52.92
73501;BME280;61721;42.206;25.320;2023-02-01T07:45:59;99947.50;;;7.37;53.20
73501;BME280;61721;42.206;25.320;2023-02-01T07:48:28;99945.75;;;7.59;53.05
73501;BME280;61721;42.206;25.320;2023-02-01T07:51:01;99946.72;;;7.58;52.94
73501;BME280;61721;42.206;25.320;2023-02-01T07:53:29;99948.28;;;7.15;55.09
73501;BME280;61721;42.206;25.320;2023-02-01T07:55:57;99938.56;;;7.95;52.72
73501;BME280;61721;42.206;25.320;2023-02-01T07:58:25;99939.22;;;6.94;54.82
73501;BME280;61721;42.206;25.320;2023-02-01T08:00:53;99941.38;;;6.88;54.16
73501;BME280;61721;42.206;25.320;2023-02-01T08:03:37;99944.34;;;7.66;53.75
73501;BME280;61721;42.206;25.320;2023-02-01T08:06:06;99929.00;;;7.11;54.21
73501;BME280;61721;42.206;25.320;2023-02-01T08:08:33;99919.25;;;7.23;54.28
73501;BME280;61721;42.206;25.320;2023-02-01T08:11:02;99924.41;;;8.39;52.74
73501;BME280;61721;42.206;25.320;2023-02-01T08:13:29;99935.31;;;8.58;51.95
73501;BME280;61721;42.206;25.320;2023-02-01T08:15:58;99933.50;;;8.36;52.15
73501;BME280;61721;42.206;25.320;2023-02-01T08:18:25;99929.06;;;8.69;51.91
73501;BME280;61721;42.206;25.320;2023-02-01T08:20:53;99929.00;;;7.35;53.16
73501;BME280;61721;42.206;25.320;2023-02-01T08:23:22;99919.44;;;8.34;50.92
73501;BME280;61721;42.206;25.320;2023-02-01T08:25:49;99923.56;;;8.27;52.01
73501;BME280;61721;42.206;25.320;2023-02-01T08:28:17;99924.19;;;8.31;51.69
73501;BME280;61721;42.206;25.320;2023-02-01T08:30:44;99928.13;;;7.81;51.53
73501;BME280;61721;42.206;25.320;2023-02-01T08:33:11;99922.06;;;8.23;50.91
73501;BME280;61721;42.206;25.320;2023-02-01T08:35:38;99927.91;;;7.95;50.49
73501;BME280;61721;42.206;25.320;2023-02-01T08:38:06;99936.88;;;8.49;50.41
73501;BME280;61721;42.206;25.320;2023-02-01T08:40:34;99942.22;;;8.49;49.51
73501;BME280;61721;42.206;25.320;2023-02-01T08:43:01;99933.03;;;8.31;51.52
73501;BME280;61721;42.206;25.320;2023-02-01T08:45:29;99940.13;;;8.08;50.07
73501;BME280;61721;42.206;25.320;2023-02-01T08:47:56;99936.75;;;8.62;49.60
73501;BME280;61721;42.206;25.320;2023-02-01T08:50:24;99940.25;;;8.18;49.92
73501;BME280;61721;42.206;25.320;2023-02-01T08:52:52;99933.34;;;8.49;50.44
73501;BME280;61721;42.206;25.320;2023-02-01T08:55:20;99938.47;;;8.41;50.25
73501;BME280;61721;42.206;25.320;2023-02-01T08:57:49;99936.50;;;8.21;51.06
73501;BME280;61721;42.206;25.320;2023-02-01T09:00:17;99941.97;;;9.59;50.25
73501;BME280;61721;42.206;25.320;2023-02-01T09:02:45;99941.25;;;8.39;50.36
73501;BME280;61721;42.206;25.320;2023-02-01T09:05:12;99934.69;;;8.21;51.43
73501;BME280;61721;42.206;25.320;2023-02-01T09:07:42;99939.03;;;8.78;50.47
73501;BME280;61721;42.206;25.320;2023-02-01T09:10:10;99940.66;;;8.47;49.98
73501;BME280;61721;42.206;25.320;2023-02-01T09:12:37;99944.41;;;8.22;52.43
73501;BME280;61721;42.206;25.320;2023-02-01T09:15:07;99935.06;;;8.28;51.87
73501;BME280;61721;42.206;25.320;2023-02-01T09:17:34;99931.03;;;8.78;50.02
73501;BME280;61721;42.206;25.320;2023-02-01T09:20:03;99933.94;;;9.38;50.27
73501;BME280;61721;42.206;25.320;2023-02-01T09:22:30;99935.44;;;9.31;49.59
73501;BME280;61721;42.206;25.320;2023-02-01T09:24:57;99930.31;;;9.08;49.86
73501;BME280;61721;42.206;25.320;2023-02-01T09:27:25;99915.44;;;10.49;48.75
73501;BME280;61721;42.206;25.320;2023-02-01T09:29:52;99917.09;;;9.59;47.29
73501;BME280;61721;42.206;25.320;2023-02-01T09:32:21;99913.25;;;10.03;47.11
73501;BME280;61721;42.206;25.320;2023-02-01T09:34:49;99906.91;;;9.73;47.16
73501;BME280;61721;42.206;25.320;2023-02-01T09:37:17;99900.56;;;10.25;46.43
73501;BME280;61721;42.206;25.320;2023-02-01T09:39:44;99906.25;;;11.10;44.99
73501;BME280;61721;42.206;25.320;2023-02-01T09:42:22;99897.34;;;10.32;46.57
73501;BME280;61721;42.206;25.320;2023-02-01T09:45:06;99887.91;;;10.96;45.32
73501;BME280;61721;42.206;25.320;2023-02-01T09:47:43;99884.91;;;10.61;44.83
73501;BME280;61721;42.206;25.320;2023-02-01T09:50:16;99885.75;;;11.38;44.19
73501;BME280;61721;42.206;25.320;2023-02-01T09:52:50;99878.81;;;11.74;42.96
73501;BME280;61721;42.206;25.320;2023-02-01T09:55:25;99877.38;;;11.70;43.06
73501;BME280;61721;42.206;25.320;2023-02-01T09:57:58;99875.16;;;11.75;44.29
73501;BME280;61721;42.206;25.320;2023-02-01T10:00:29;99875.75;;;10.73;44.98
73501;BME280;61721;42.206;25.320;2023-02-01T10:02:58;99876.06;;;11.18;44.46
73501;BME280;61721;42.206;25.320;2023-02-01T10:05:42;99875.34;;;9.67;47.75
73501;BME280;61721;42.206;25.320;2023-02-01T10:08:18;99864.16;;;9.32;47.71
73501;BME280;61721;42.206;25.320;2023-02-01T10:10:50;99856.16;;;9.53;46.97
73501;BME280;61721;42.206;25.320;2023-02-01T10:16:20;99850.78;;;10.44;46.89
73501;BME280;61721;42.206;25.320;2023-02-01T10:19:19;99849.13;;;11.95;43.89
73501;BME280;61721;42.206;25.320;2023-02-01T10:21:54;99836.34;;;12.97;42.10
73501;BME280;61721;42.206;25.320;2023-02-01T10:24:40;99828.69;;;11.84;42.21
73501;BME280;61721;42.206;25.320;2023-02-01T10:27:17;99837.41;;;12.68;41.93
73501;BME280;61721;42.206;25.320;2023-02-01T10:29:51;99823.13;;;11.95;41.72
73501;BME280;61721;42.206;25.320;2023-02-01T10:32:23;99830.25;;;10.63;44.40
73501;BME280;61721;42.206;25.320;2023-02-01T10:34:57;99827.34;;;10.26;44.23
73501;BME280;61721;42.206;25.320;2023-02-01T10:37:28;99818.50;;;9.96;45.69
73501;BME280;61721;42.206;25.320;2023-02-01T10:39:58;99823.41;;;9.91;45.91
73501;BME280;61721;42.206;25.320;2023-02-01T10:42:28;99815.50;;;9.79;46.18
73501;BME280;61721;42.206;25.320;2023-02-01T10:44:57;99801.94;;;9.41;45.64
73501;BME280;61721;42.206;25.320;2023-02-01T10:47:26;99797.75;;;9.69;46.50
73501;BME280;61721;42.206;25.320;2023-02-01T10:50:02;99794.19;;;9.99;46.76
73501;BME280;61721;42.206;25.320;2023-02-01T10:52:43;99788.16;;;9.66;45.54
73501;BME280;61721;42.206;25.320;2023-02-01T10:55:33;99780.38;;;9.54;47.19
73501;BME280;61721;42.206;25.320;2023-02-01T10:58:01;99786.16;;;10.96;44.23
73501;BME280;61721;42.206;25.320;2023-02-01T11:00:37;99770.19;;;9.78;45.07
73501;BME280;61721;42.206;25.320;2023-02-01T11:03:27;99780.28;;;10.14;45.13
73501;BME280;61721;42.206;25.320;2023-02-01T11:05:59;99775.00;;;9.84;45.01
73501;BME280;61721;42.206;25.320;2023-02-01T11:08:27;99750.22;;;10.89;43.27
73501;BME280;61721;42.206;25.320;2023-02-01T11:10:58;99752.75;;;11.47;42.44
73501;BME280;61721;42.206;25.320;2023-02-01T11:13:31;99747.13;;;12.05;40.26
73501;BME280;61721;42.206;25.320;2023-02-01T11:16:02;99732.22;;;12.73;39.35
73501;BME280;61721;42.206;25.320;2023-02-01T11:18:33;99741.88;;;12.83;39.55
73501;BME280;61721;42.206;25.320;2023-02-01T11:21:04;99734.31;;;12.61;38.55
73501;BME280;61721;42.206;25.320;2023-02-01T11:23:33;99729.03;;;13.13;38.63
73501;BME280;61721;42.206;25.320;2023-02-01T11:26:10;99724.63;;;13.63;38.33
73501;BME280;61721;42.206;25.320;2023-02-01T11:28:40;99722.38;;;13.93;38.10
73501;BME280;61721;42.206;25.320;2023-02-01T11:31:10;99717.75;;;15.57;37.45
73501;BME280;61721;42.206;25.320;2023-02-01T11:33:45;99708.47;;;13.55;37.24
73501;BME280;61721;42.206;25.320;2023-02-01T11:36:18;99710.31;;;13.63;36.91
73501;BME280;61721;42.206;25.320;2023-02-01T11:38:52;99713.78;;;15.04;35.73
73501;BME280;61721;42.206;25.320;2023-02-01T11:41:23;99705.72;;;14.88;35.48
73501;BME280;61721;42.206;25.320;2023-02-01T11:43:53;99703.34;;;14.36;37.16
73501;BME280;61721;42.206;25.320;2023-02-01T11:46:24;99704.72;;;14.57;35.28
73501;BME280;61721;42.206;25.320;2023-02-01T11:48:56;99697.31;;;14.42;36.53
73501;BME280;61721;42.206;25.320;2023-02-01T11:51:40;99698.66;;;13.88;36.73
73501;BME280;61721;42.206;25.320;2023-02-01T11:54:25;99698.81;;;14.37;36.28
73501;BME280;61721;42.206;25.320;2023-02-01T11:57:11;99695.28;;;14.77;35.99
73501;BME280;61721;42.206;25.320;2023-02-01T12:00:02;99685.63;;;15.23;35.67
73501;BME280;61721;42.206;25.320;2023-02-01T12:02:49;99696.28;;;14.60;36.94
73501;BME280;61721;42.206;25.320;2023-02-01T12:05:32;99702.19;;;13.89;36.40
73501;BME280;61721;42.206;25.320;2023-02-01T12:08:19;99691.09;;;13.16;37.70
73501;BME280;61721;42.206;25.320;2023-02-01T12:11:00;99694.78;;;14.41;35.25
73501;BME280;61721;42.206;25.320;2023-02-01T12:13:40;99686.88;;;14.72;34.70
73501;BME280;61721;42.206;25.320;2023-02-01T12:16:19;99681.75;;;15.09;34.80
73501;BME280;61721;42.206;25.320;2023-02-01T12:22:08;99665.44;;;15.66;34.25
73501;BME280;61721;42.206;25.320;2023-02-01T12:25:14;99681.16;;;14.42;36.04
73501;BME280;61721;42.206;25.320;2023-02-01T12:28:08;99669.16;;;15.96;33.84
73501;BME280;61721;42.206;25.320;2023-02-01T12:30:49;99666.50;;;15.57;34.74
73501;BME280;61721;42.206;25.320;2023-02-01T12:33:32;99657.56;;;16.63;33.45
73501;BME280;61721;42.206;25.320;2023-02-01T12:36:12;99656.19;;;14.97;35.61
73501;BME280;61721;42.206;25.320;2023-02-01T12:38:53;99661.22;;;15.08;34.92
73501;BME280;61721;42.206;25.320;2023-02-01T12:41:49;99653.47;;;14.00;35.38
73501;BME280;61721;42.206;25.320;2023-02-01T12:44:27;99654.50;;;14.23;35.42
73501;BME280;61721;42.206;25.320;2023-02-01T12:46:58;99641.06;;;14.80;33.40
73501;BME280;61721;42.206;25.320;2023-02-01T12:49:38;99644.09;;;14.77;34.80
73501;BME280;61721;42.206;25.320;2023-02-01T12:52:13;99646.38;;;15.12;34.42
73501;BME280;61721;42.206;25.320;2023-02-01T12:54:45;99660.56;;;14.33;34.82
73501;BME280;61721;42.206;25.320;2023-02-01T12:57:17;99655.13;;;15.14;34.87
73501;BME280;61721;42.206;25.320;2023-02-01T12:59:51;99652.19;;;14.77;32.98
73501;BME280;61721;42.206;25.320;2023-02-01T13:02:25;99653.66;;;14.23;34.99
73501;BME280;61721;42.206;25.320;2023-02-01T13:04:59;99657.25;;;16.36;31.78
73501;BME280;61721;42.206;25.320;2023-02-01T13:07:34;99643.22;;;15.01;32.56
73501;BME280;61721;42.206;25.320;2023-02-01T13:10:05;99644.03;;;15.17;32.13
73501;BME280;61721;42.206;25.320;2023-02-01T13:12:48;99635.25;;;15.15;32.52
73501;BME280;61721;42.206;25.320;2023-02-01T13:15:21;99632.97;;;14.88;33.14
73501;BME280;61721;42.206;25.320;2023-02-01T13:17:57;99629.66;;;14.37;33.08
73501;BME280;61721;42.206;25.320;2023-02-01T13:20:30;99642.72;;;14.89;33.41
73501;BME280;61721;42.206;25.320;2023-02-01T13:23:03;99660.28;;;14.36;33.77
73501;BME280;61721;42.206;25.320;2023-02-01T13:25:37;99653.16;;;16.85;31.53
73501;BME280;61721;42.206;25.320;2023-02-01T13:28:15;99649.81;;;15.53;33.08
73501;BME280;61721;42.206;25.320;2023-02-01T13:31:01;99662.75;;;15.03;32.80